Welshpool, United Kingdom
Current Conditions -  °F | °C
As of 8:50 PM on Wednesday 17 Dec 2014 (Local Time) from EGOS Reporting Station
Broken Clouds Broken Clouds  
Wind Chill: 54°   Ceiling: 3800
Heat Index: 54°   Visibility: 6mi
Dew Point: 50°   Wind: 10mph
Humidity: 88%   Direction: 220°SW
Pressure: 29.71"   Gusts: NA
Location:  52.66°N, 3.15°W
Report Text: EGOS 172050Z AUTO 22009KT 9999 FEW023/// BKN038/// 12/10 Q1006
Loading
Personal Weather Stations






























Interactive Weather Map New forecast layout! Learn more

10-Day Weather Forecast

Advertisements
Track Severe Weather on mobile